Time;durP1;ratioP1;P1;durP2;ratioP2;P2;SDS_P1;SDS_P2;PMS_P1;PMS_P2;Temp;Humidity;BMP_temperature;BMP_pressure;BME280_temperature;BME280_humidity;BME280_pressure;Samples;Min_cycle;Max_cycle;Signal;HPM_P1;HPM_P2
2023/12/30 00:01:50;;;;;;;12.05;1.88;;;9.50;99.90;;;;;;5023566;28;20057;-65
2023/12/30 00:04:16;;;;;;;8.60;1.58;;;9.60;99.90;;;;;;5039974;28;20037;-66
2023/12/30 00:06:43;;;;;;;12.40;1.70;;;9.50;99.90;;;;;;5056829;28;20404;-63
2023/12/30 00:09:09;;;;;;;15.48;1.83;;;9.50;99.90;;;;;;5073106;28;20064;-65
2023/12/30 00:11:35;;;;;;;9.40;1.30;;;9.50;99.90;;;;;;5056069;28;20056;-64
2023/12/30 00:14:00;;;;;;;8.25;1.40;;;9.40;99.90;;;;;;5039495;28;20064;-68
2023/12/30 00:16:29;;;;;;;11.10;2.10;;;9.50;99.90;;;;;;5056682;28;20092;-63
2023/12/30 00:18:56;;;;;;;8.65;1.38;;;9.40;99.90;;;;;;5055924;28;20391;-64
2023/12/30 00:21:22;;;;;;;14.02;1.70;;;9.30;99.90;;;;;;5056025;28;20037;-63
2023/12/30 00:23:49;;;;;;;12.18;1.88;;;9.20;99.90;;;;;;5056649;28;20025;-63
2023/12/30 00:26:21;;;;;;;9.70;2.03;;;9.20;99.90;;;;;;5056467;28;20412;-63
2023/12/30 00:28:53;;;;;;;13.77;1.63;;;9.20;99.90;;;;;;5055634;28;20419;-66
2023/12/30 00:31:29;;;;;;;7.72;1.40;;;9.10;99.90;;;;;;5056514;28;20125;-63
2023/12/30 00:34:00;;;;;;;11.25;2.25;;;9.10;99.90;;;;;;5056595;28;20041;-63
2023/12/30 00:36:27;;;;;;;8.90;1.65;;;9.00;99.90;;;;;;5056541;28;20021;-63
2023/12/30 00:38:54;;;;;;;13.57;1.65;;;9.00;99.90;;;;;;5056475;28;20025;-63
2023/12/30 00:41:25;;;;;;;13.98;2.17;;;9.00;99.90;;;;;;5056459;28;20056;-62
2023/12/30 00:43:51;;;;;;;14.50;1.85;;;8.90;99.90;;;;;;5056446;28;20374;-63
2023/12/30 00:46:21;;;;;;;9.63;1.67;;;8.90;99.90;;;;;;5055615;28;20062;-64
2023/12/30 00:48:47;;;;;;;14.90;1.70;;;8.90;99.90;;;;;;5056434;28;20102;-63
2023/12/30 00:51:13;;;;;;;10.35;1.85;;;8.90;99.90;;;;;;5056437;28;20393;-63
2023/12/30 00:53:40;;;;;;;11.90;2.20;;;8.90;99.90;;;;;;5038960;28;20033;-62
2023/12/30 00:56:06;;;;;;;10.75;2.03;;;8.90;99.90;;;;;;5056346;28;20301;-63
2023/12/30 00:58:31;;;;;;;12.15;1.63;;;8.80;99.90;;;;;;5056250;28;20033;-62
2023/12/30 01:00:59;;;;;;;11.13;1.80;;;8.70;99.90;;;;;;5072235;28;20033;-63
2023/12/30 01:03:25;;;;;;;9.27;1.60;;;8.70;99.90;;;;;;5055467;28;20025;-62
2023/12/30 01:05:52;;;;;;;8.65;1.40;;;8.70;99.90;;;;;;5056241;28;20032;-63
2023/12/30 01:08:18;;;;;;;10.40;1.85;;;8.70;99.90;;;;;;5055507;28;20021;-63
2023/12/30 01:10:44;;;;;;;8.40;1.38;;;8.70;99.90;;;;;;5056258;28;20025;-63
2023/12/30 01:13:10;;;;;;;9.02;1.33;;;8.60;99.90;;;;;;5038854;28;20127;-63
2023/12/30 01:15:36;;;;;;;8.20;1.60;;;8.60;99.90;;;;;;5055376;28;20044;-62
2023/12/30 01:18:03;;;;;;;11.77;1.60;;;8.60;99.90;;;;;;5056112;28;20418;-63
2023/12/30 01:20:29;;;;;;;11.02;1.30;;;8.60;99.90;;;;;;5056140;28;20021;-64
2023/12/30 01:22:55;;;;;;;9.68;1.73;;;8.60;99.90;;;;;;5056174;28;20108;-63
2023/12/30 01:25:21;;;;;;;7.85;1.48;;;8.60;99.90;;;;;;5055261;28;20132;-63
2023/12/30 01:27:47;;;;;;;12.65;1.67;;;8.60;99.90;;;;;;5055267;28;20094;-63
2023/12/30 01:30:13;;;;;;;12.82;1.55;;;8.70;99.90;;;;;;5055981;28;20357;-64
2023/12/30 01:32:39;;;;;;;8.68;1.40;;;8.60;99.90;;;;;;5056010;28;20399;-65
2023/12/30 01:35:05;;;;;;;12.23;1.33;;;8.60;99.90;;;;;;5055206;28;20404;-65
2023/12/30 01:37:31;;;;;;;9.75;1.45;;;8.70;99.90;;;;;;5057882;28;20098;-64
2023/12/30 01:39:56;;;;;;;12.57;1.10;;;8.70;99.90;;;;;;5059485;28;20029;-63
2023/12/30 01:42:22;;;;;;;12.68;1.52;;;8.70;99.90;;;;;;5059697;28;20033;-63
2023/12/30 01:44:48;;;;;;;13.38;1.52;;;8.60;99.90;;;;;;5075314;28;20112;-64
2023/12/30 01:47:14;;;;;;;6.15;1.23;;;8.70;99.90;;;;;;5059432;28;20037;-64
2023/12/30 01:49:40;;;;;;;13.43;1.30;;;8.80;99.90;;;;;;5058672;28;20316;-67
2023/12/30 01:52:07;;;;;;;10.73;1.23;;;8.90;99.90;;;;;;5075163;28;20107;-65
2023/12/30 01:54:33;;;;;;;9.18;1.40;;;9.10;99.90;;;;;;5075040;28;20063;-65
2023/12/30 01:56:59;;;;;;;9.48;1.27;;;9.10;99.90;;;;;;5059174;28;20206;-64
2023/12/30 01:59:28;;;;;;;9.32;1.48;;;9.10;99.90;;;;;;5025483;28;20120;-63
2023/12/30 02:01:55;;;;;;;7.13;1.10;;;9.10;99.90;;;;;;5075125;28;20132;-63
2023/12/30 02:04:22;;;;;;;11.38;1.50;;;9.00;99.90;;;;;;5059138;28;20385;-66
2023/12/30 02:06:48;;;;;;;9.00;1.45;;;9.00;99.90;;;;;;5059164;28;20439;-64
2023/12/30 02:09:14;;;;;;;11.75;1.45;;;8.90;99.90;;;;;;5059072;28;20056;-64
2023/12/30 02:11:40;;;;;;;16.33;1.42;;;8.90;99.90;;;;;;5059136;28;20041;-63
2023/12/30 02:14:28;;;;;;;10.18;1.60;;;8.80;99.90;;;;;;5058835;28;20037;-63
2023/12/30 02:16:54;;;;;;;12.50;1.42;;;8.80;99.90;;;;;;5059062;28;20108;-64
2023/12/30 02:19:20;;;;;;;10.40;1.17;;;8.80;99.90;;;;;;5074706;28;20120;-64
2023/12/30 02:21:46;;;;;;;10.02;1.60;;;8.80;99.90;;;;;;5058942;28;20029;-64
2023/12/30 02:24:12;;;;;;;13.63;1.55;;;8.70;99.90;;;;;;5058702;28;20297;-63
2023/12/30 02:26:39;;;;;;;8.02;1.35;;;8.60;99.90;;;;;;5058757;28;20048;-65
2023/12/30 02:29:06;;;;;;;8.95;1.52;;;8.60;99.90;;;;;;5058410;28;20138;-64
2023/12/30 02:31:32;;;;;;;8.73;1.67;;;8.60;99.90;;;;;;5074603;28;20037;-63
2023/12/30 02:33:57;;;;;;;9.85;1.33;;;8.50;99.90;;;;;;5057607;28;20308;-63
2023/12/30 02:36:23;;;;;;;13.65;1.40;;;8.50;99.90;;;;;;5058600;28;20416;-64
2023/12/30 02:38:49;;;;;;;12.45;1.25;;;8.50;99.90;;;;;;5058496;28;20037;-65
2023/12/30 02:41:15;;;;;;;12.60;1.35;;;8.60;99.90;;;;;;5058507;28;20037;-64
2023/12/30 02:43:56;;;;;;;10.18;1.40;;;8.60;99.90;;;;;;5058341;28;20028;-64
2023/12/30 02:46:22;;;;;;;11.45;1.15;;;8.50;99.90;;;;;;5058461;28;20454;-65
2023/12/30 02:48:48;;;;;;;8.18;1.48;;;8.50;99.90;;;;;;5057049;28;20086;-66
2023/12/30 02:51:15;;;;;;;9.23;1.60;;;8.50;99.90;;;;;;5074171;28;20292;-65
2023/12/30 02:53:41;;;;;;;10.70;1.35;;;8.60;99.90;;;;;;5073935;28;20029;-65
2023/12/30 02:56:16;;;;;;;10.65;1.52;;;8.60;99.90;;;;;;5058164;28;20029;-64
2023/12/30 02:58:42;;;;;;;12.65;1.25;;;8.50;99.90;;;;;;5042137;28;20021;-64
2023/12/30 03:01:08;;;;;;;15.35;1.77;;;8.50;99.90;;;;;;5057311;28;20273;-65
2023/12/30 03:03:34;;;;;;;10.85;1.38;;;8.50;99.90;;;;;;5058124;28;20025;-65
2023/12/30 03:06:00;;;;;;;10.43;1.45;;;8.40;99.90;;;;;;5057938;28;20029;-65
2023/12/30 03:08:26;;;;;;;6.10;1.00;;;8.40;99.90;;;;;;5057849;28;20029;-64
2023/12/30 03:10:51;;;;;;;14.45;1.60;;;8.40;99.90;;;;;;5057823;28;20021;-64
2023/12/30 03:13:18;;;;;;;7.57;1.50;;;8.40;99.90;;;;;;5057790;28;20021;-65
2023/12/30 03:15:44;;;;;;;11.45;1.40;;;8.40;99.90;;;;;;5057018;28;20035;-65
2023/12/30 03:18:09;;;;;;;13.18;1.65;;;8.50;99.90;;;;;;5056873;28;20131;-67
2023/12/30 03:20:35;;;;;;;11.57;1.45;;;8.40;99.90;;;;;;5057944;28;20392;-65
2023/12/30 03:23:01;;;;;;;10.20;1.88;;;8.60;99.90;;;;;;5040494;28;20036;-65
2023/12/30 03:25:26;;;;;;;13.57;1.65;;;8.50;99.90;;;;;;5057562;28;20105;-64
2023/12/30 03:27:52;;;;;;;15.10;1.42;;;8.50;99.90;;;;;;5073409;28;20285;-64
2023/12/30 03:30:18;;;;;;;12.95;2.13;;;8.40;99.90;;;;;;5073099;28;20061;-64
2023/12/30 03:32:45;;;;;;;12.50;1.50;;;8.50;99.90;;;;;;5073185;28;20414;-64
2023/12/30 03:35:11;;;;;;;9.93;1.60;;;8.40;99.90;;;;;;5057208;28;20036;-64
2023/12/30 03:37:37;;;;;;;12.38;1.70;;;8.40;99.90;;;;;;5073159;28;20116;-64
2023/12/30 03:40:03;;;;;;;15.82;1.60;;;8.40;99.90;;;;;;5057265;28;20104;-64
2023/12/30 03:42:29;;;;;;;19.40;2.03;;;8.30;99.90;;;;;;5073035;28;20397;-64
2023/12/30 03:44:56;;;;;;;18.98;2.08;;;8.30;99.90;;;;;;5057331;28;20126;-63
2023/12/30 03:47:23;;;;;;;13.90;1.85;;;8.30;99.90;;;;;;5056476;28;20035;-63
2023/12/30 03:49:48;;;;;;;11.43;1.83;;;8.20;99.90;;;;;;5057231;28;20339;-64
2023/12/30 03:52:14;;;;;;;13.23;2.00;;;8.20;99.90;;;;;;5057171;28;20033;-63
2023/12/30 03:54:40;;;;;;;15.52;1.80;;;8.20;99.90;;;;;;5057225;28;20104;-63
2023/12/30 03:57:06;;;;;;;10.88;1.65;;;8.20;99.90;;;;;;5056346;28;20029;-63
2023/12/30 03:59:32;;;;;;;8.80;1.80;;;8.20;99.90;;;;;;5056848;28;20093;-64
2023/12/30 04:01:57;;;;;;;9.38;1.58;;;8.10;99.90;;;;;;5057084;28;20022;-64
2023/12/30 04:04:23;;;;;;;12.02;1.77;;;8.10;99.90;;;;;;5056914;28;20048;-64
2023/12/30 04:06:49;;;;;;;13.88;1.63;;;8.20;99.90;;;;;;5056939;28;20420;-64
2023/12/30 04:09:15;;;;;;;14.93;1.70;;;8.10;99.90;;;;;;5056043;28;20033;-63
2023/12/30 04:11:40;;;;;;;12.27;2.22;;;8.10;99.90;;;;;;5056816;28;20093;-64
2023/12/30 04:14:06;;;;;;;11.85;1.88;;;8.10;99.90;;;;;;5056614;28;20032;-64
2023/12/30 04:16:32;;;;;;;13.25;1.48;;;8.10;99.90;;;;;;5055886;28;20033;-64
2023/12/30 04:18:58;;;;;;;11.65;1.58;;;8.10;99.90;;;;;;5072519;28;20029;-63
2023/12/30 04:21:24;;;;;;;11.23;1.40;;;8.10;99.90;;;;;;5056699;28;20044;-64
2023/12/30 04:23:50;;;;;;;15.00;1.73;;;8.00;99.90;;;;;;5056544;28;20044;-62
2023/12/30 04:26:15;;;;;;;14.25;1.58;;;8.00;99.90;;;;;;5039279;28;20356;-63
2023/12/30 04:28:41;;;;;;;12.40;1.60;;;8.00;99.90;;;;;;5055661;28;20033;-63
2023/12/30 04:31:07;;;;;;;10.00;1.20;;;8.10;99.90;;;;;;5055740;28;20057;-63
2023/12/30 04:33:33;;;;;;;17.98;1.55;;;8.10;99.90;;;;;;5056596;28;20412;-64
2023/12/30 04:35:58;;;;;;;12.80;1.77;;;8.10;99.90;;;;;;5072694;28;20124;-64
2023/12/30 04:38:25;;;;;;;17.08;1.80;;;8.10;99.90;;;;;;5055929;28;20056;-64
2023/12/30 04:40:50;;;;;;;10.68;1.63;;;8.10;99.90;;;;;;5056037;28;20033;-63
2023/12/30 04:43:16;;;;;;;10.07;1.70;;;8.10;99.90;;;;;;5056509;28;20035;-63
2023/12/30 04:45:42;;;;;;;8.68;1.67;;;8.00;99.90;;;;;;5039161;28;20404;-63
2023/12/30 04:48:08;;;;;;;13.77;1.60;;;8.00;99.90;;;;;;5039128;28;20406;-65
2023/12/30 04:50:34;;;;;;;10.13;2.15;;;8.00;99.90;;;;;;5056524;28;20072;-64
2023/12/30 04:53:00;;;;;;;14.30;1.88;;;8.00;99.90;;;;;;5072274;28;20355;-65
2023/12/30 04:55:26;;;;;;;12.35;1.42;;;8.00;99.90;;;;;;5072180;28;20033;-64
2023/12/30 04:57:52;;;;;;;12.25;1.38;;;8.00;99.90;;;;;;5055447;28;20057;-64
2023/12/30 05:00:18;;;;;;;16.00;1.50;;;8.00;99.90;;;;;;5056233;28;20064;-64
2023/12/30 05:02:44;;;;;;;8.13;1.23;;;8.00;99.90;;;;;;5056245;28;20029;-65
2023/12/30 05:05:09;;;;;;;8.80;1.35;;;7.90;99.90;;;;;;5056257;28;20044;-65
2023/12/30 05:07:35;;;;;;;9.50;1.35;;;8.00;99.90;;;;;;5072146;28;20040;-64
2023/12/30 05:10:01;;;;;;;6.43;1.10;;;8.00;99.90;;;;;;5056159;28;20041;-64
2023/12/30 05:12:26;;;;;;;14.80;1.90;;;7.90;99.90;;;;;;5058064;28;20300;-64
2023/12/30 05:14:52;;;;;;;11.55;1.40;;;8.00;99.90;;;;;;5059085;28;20060;-64
2023/12/30 05:17:18;;;;;;;11.98;1.60;;;8.00;99.90;;;;;;5059870;28;20131;-65
2023/12/30 05:19:44;;;;;;;12.63;2.28;;;8.00;99.90;;;;;;5076244;28;20393;-64
2023/12/30 05:22:10;;;;;;;11.73;1.67;;;7.90;99.90;;;;;;5059911;28;20033;-64
2023/12/30 05:24:36;;;;;;;12.00;1.30;;;8.00;99.90;;;;;;5059823;28;20062;-64
2023/12/30 05:27:02;;;;;;;10.73;1.55;;;7.90;99.90;;;;;;5059598;28;20024;-64
2023/12/30 05:29:28;;;;;;;9.32;1.35;;;8.00;99.90;;;;;;5059519;28;20102;-63
2023/12/30 05:31:54;;;;;;;10.23;1.52;;;7.90;99.90;;;;;;5059773;28;20041;-63
2023/12/30 05:34:19;;;;;;;12.27;1.48;;;7.80;99.90;;;;;;5059484;28;20040;-63
2023/12/30 05:36:45;;;;;;;11.85;1.80;;;7.80;99.90;;;;;;5059844;28;20277;-63
2023/12/30 05:39:13;;;;;;;9.82;1.55;;;7.80;99.90;;;;;;5058687;28;20057;-63
2023/12/30 05:41:39;;;;;;;9.30;1.00;;;7.70;99.90;;;;;;5059517;28;20078;-64
2023/12/30 05:44:05;;;;;;;17.70;2.00;;;7.70;99.90;;;;;;5058760;28;20041;-64
2023/12/30 05:46:31;;;;;;;13.48;1.42;;;7.70;99.90;;;;;;5059392;28;20025;-63
2023/12/30 05:48:57;;;;;;;10.60;1.55;;;7.70;99.90;;;;;;5025789;28;20032;-64
2023/12/30 05:51:23;;;;;;;11.98;1.38;;;7.70;99.90;;;;;;5058694;28;20033;-63
2023/12/30 05:53:49;;;;;;;10.90;1.23;;;7.70;99.90;;;;;;5059146;28;20029;-63
2023/12/30 05:56:24;;;;;;;11.15;1.63;;;7.70;99.90;;;;;;5025564;28;20043;-62
2023/12/30 05:58:52;;;;;;;10.60;1.45;;;7.70;99.90;;;;;;5058421;28;20033;-63
2023/12/30 06:01:18;;;;;;;10.30;2.00;;;7.70;99.90;;;;;;5059067;28;20025;-63
2023/12/30 06:03:44;;;;;;;16.35;1.63;;;7.70;99.90;;;;;;5058988;28;20094;-63
2023/12/30 06:06:09;;;;;;;8.27;1.45;;;7.70;99.90;;;;;;5074944;28;20036;-64
2023/12/30 06:08:35;;;;;;;9.80;1.40;;;7.70;99.90;;;;;;5058152;28;20037;-63
2023/12/30 06:11:01;;;;;;;11.93;1.20;;;7.70;99.90;;;;;;5058076;28;20110;-63
2023/12/30 06:13:27;;;;;;;17.92;1.52;;;7.70;99.90;;;;;;5058768;28;20040;-63
2023/12/30 06:15:56;;;;;;;11.10;1.60;;;7.80;99.90;;;;;;5058805;28;20297;-64
2023/12/30 06:18:26;;;;;;;9.35;1.52;;;7.80;99.90;;;;;;5058171;28;20404;-62
2023/12/30 06:20:52;;;;;;;8.68;1.60;;;7.80;99.90;;;;;;5059161;28;20079;-64
2023/12/30 06:23:18;;;;;;;11.05;1.30;;;7.80;99.90;;;;;;5058282;28;20056;-63
2023/12/30 06:25:44;;;;;;;14.13;1.88;;;7.80;99.90;;;;;;5058637;28;20112;-63
2023/12/30 06:28:10;;;;;;;13.63;1.80;;;7.80;99.90;;;;;;5058483;28;20029;-63
2023/12/30 06:30:35;;;;;;;8.07;1.20;;;7.80;99.90;;;;;;5058316;28;20146;-63
2023/12/30 06:33:06;;;;;;;7.90;1.27;;;7.80;99.90;;;;;;5057783;28;20426;-63
2023/12/30 06:35:33;;;;;;;10.80;2.08;;;7.80;99.90;;;;;;5058392;28;20115;-63
2023/12/30 06:38:00;;;;;;;13.20;1.77;;;7.80;99.90;;;;;;5058541;28;20043;-64
2023/12/30 06:40:26;;;;;;;15.13;1.70;;;7.80;99.90;;;;;;5058305;28;20048;-63
2023/12/30 06:42:52;;;;;;;13.48;1.85;;;7.80;99.90;;;;;;5058325;28;20112;-63
2023/12/30 06:45:18;;;;;;;16.08;1.38;;;7.80;99.90;;;;;;5074186;28;20466;-63
2023/12/30 06:47:43;;;;;;;9.40;1.65;;;7.80;99.90;;;;;;5040980;28;20037;-63
2023/12/30 06:50:12;;;;;;;11.10;1.83;;;7.80;99.90;;;;;;5058144;28;20415;-63
2023/12/30 06:52:37;;;;;;;15.35;1.67;;;7.80;99.90;;;;;;5074029;28;20065;-65
2023/12/30 06:55:05;;;;;;;14.40;1.80;;;7.80;99.90;;;;;;5058016;28;20114;-63
2023/12/30 06:57:31;;;;;;;11.07;2.05;;;7.80;99.90;;;;;;5057969;28;20033;-63
2023/12/30 06:59:57;;;;;;;17.08;2.20;;;7.70;99.90;;;;;;5057935;28;20056;-63
2023/12/30 07:02:23;;;;;;;15.05;1.92;;;7.80;99.90;;;;;;5057081;28;20082;-63
2023/12/30 07:04:49;;;;;;;14.88;1.98;;;7.70;99.90;;;;;;5056953;28;20355;-63
2023/12/30 07:07:15;;;;;;;11.75;1.80;;;7.70;99.90;;;;;;5057721;28;20045;-63
2023/12/30 07:09:40;;;;;;;11.52;2.08;;;7.70;99.90;;;;;;5056955;28;20274;-63
2023/12/30 07:12:07;;;;;;;15.30;2.10;;;7.60;99.90;;;;;;5057094;28;20033;-63
2023/12/30 07:14:37;;;;;;;15.75;2.10;;;7.60;99.90;;;;;;5073766;28;20408;-63
2023/12/30 07:17:03;;;;;;;17.23;2.20;;;7.60;99.90;;;;;;5056981;28;20357;-62
2023/12/30 07:19:29;;;;;;;14.50;2.55;;;7.60;99.90;;;;;;5073448;28;20120;-63
2023/12/30 07:21:55;;;;;;;10.88;2.03;;;7.60;99.90;;;;;;5057314;28;20102;-63
2023/12/30 07:24:21;;;;;;;15.07;2.03;;;7.50;99.90;;;;;;5040014;28;20033;-64
2023/12/30 07:26:46;;;;;;;13.40;2.50;;;7.50;99.90;;;;;;5057411;28;20041;-63
2023/12/30 07:29:12;;;;;;;17.15;2.78;;;7.50;99.90;;;;;;5056458;28;20401;-63
2023/12/30 07:31:39;;;;;;;15.40;2.65;;;7.50;99.90;;;;;;5057496;28;20092;-63
2023/12/30 07:34:05;;;;;;;15.25;2.20;;;7.50;99.90;;;;;;5056728;28;20041;-63
2023/12/30 07:36:31;;;;;;;16.38;2.55;;;7.50;99.90;;;;;;5056584;28;20037;-63
2023/12/30 07:38:57;;;;;;;13.38;2.25;;;7.40;99.90;;;;;;5057341;28;20296;-63
2023/12/30 07:41:23;;;;;;;11.70;2.10;;;7.40;99.90;;;;;;5057123;28;20114;-63
2023/12/30 07:43:49;;;;;;;11.55;2.40;;;7.40;99.90;;;;;;5072974;28;20065;-63
2023/12/30 07:46:15;;;;;;;12.38;2.45;;;7.40;99.90;;;;;;5057157;28;20033;-63
2023/12/30 07:48:42;;;;;;;14.80;2.40;;;7.40;99.90;;;;;;5056329;28;20029;-64
2023/12/30 07:51:08;;;;;;;14.20;2.22;;;7.50;99.90;;;;;;5056353;28;20082;-65
2023/12/30 07:53:34;;;;;;;12.85;2.28;;;7.50;99.90;;;;;;5072768;28;20036;-63
2023/12/30 07:56:00;;;;;;;16.13;2.40;;;7.50;99.90;;;;;;5072602;28;20051;-63
2023/12/30 07:58:25;;;;;;;9.82;2.20;;;7.50;99.90;;;;;;5072805;28;20033;-63
2023/12/30 08:00:51;;;;;;;12.43;2.65;;;7.50;99.90;;;;;;5056295;28;20428;-64
2023/12/30 08:03:17;;;;;;;14.07;2.63;;;7.50;99.90;;;;;;5056898;28;20112;-63
2023/12/30 08:05:43;;;;;;;10.93;2.63;;;7.40;99.90;;;;;;5056875;28;20029;-63
2023/12/30 08:08:09;;;;;;;18.58;2.33;;;7.40;99.90;;;;;;5056872;28;20415;-64
2023/12/30 08:10:35;;;;;;;14.75;2.58;;;7.40;99.90;;;;;;5056058;28;20033;-64
2023/12/30 08:13:00;;;;;;;12.05;2.65;;;7.50;99.90;;;;;;5056651;28;20393;-64
2023/12/30 08:15:27;;;;;;;20.10;2.90;;;7.50;99.90;;;;;;5056574;28;20116;-64
2023/12/30 08:17:52;;;;;;;14.15;3.15;;;7.50;99.90;;;;;;5056780;28;20155;-65
2023/12/30 08:20:18;;;;;;;20.27;3.25;;;7.60;99.90;;;;;;5055786;28;20051;-64
2023/12/30 08:22:44;;;;;;;12.02;3.13;;;7.60;99.90;;;;;;5056608;28;20070;-65
2023/12/30 08:25:13;;;;;;;23.20;3.55;;;7.60;99.90;;;;;;5056577;28;20120;-65
2023/12/30 08:27:39;;;;;;;12.68;3.35;;;7.60;99.90;;;;;;5056471;28;20095;-64
2023/12/30 08:30:05;;;;;;;17.45;3.85;;;7.70;99.90;;;;;;5056252;28;20052;-64
2023/12/30 08:32:31;;;;;;;18.30;3.40;;;7.70;99.90;;;;;;5056408;28;20076;-63
2023/12/30 08:34:57;;;;;;;20.40;4.60;;;7.70;99.90;;;;;;5056779;28;20429;-64
2023/12/30 08:37:23;;;;;;;14.45;3.92;;;7.80;99.90;;;;;;5055896;28;20041;-64
2023/12/30 08:39:50;;;;;;;12.30;3.63;;;7.80;99.90;;;;;;5055913;28;20029;-64
2023/12/30 08:42:16;;;;;;;18.08;3.75;;;7.80;99.90;;;;;;5056418;28;20032;-63
2023/12/30 08:44:43;;;;;;;16.55;4.05;;;7.80;99.90;;;;;;5056594;28;20388;-62
2023/12/30 08:47:12;;;;;;;22.75;4.60;;;7.80;99.90;;;;;;5059747;28;20036;-64
2023/12/30 08:49:42;;;;;;;15.40;4.22;;;7.80;99.90;;;;;;5060796;28;20135;-63
2023/12/30 08:52:08;;;;;;;15.05;4.22;;;7.80;99.90;;;;;;5043992;28;20039;-63
2023/12/30 08:54:37;;;;;;;17.52;3.72;;;7.80;99.90;;;;;;5059607;28;20124;-63
2023/12/30 08:57:03;;;;;;;11.73;4.45;;;7.90;99.90;;;;;;5060298;28;20057;-63
2023/12/30 08:59:30;;;;;;;13.60;4.15;;;7.90;99.90;;;;;;5060417;28;20045;-62
2023/12/30 09:01:55;;;;;;;19.90;4.00;;;7.90;99.90;;;;;;5060307;28;20108;-62
2023/12/30 09:04:21;;;;;;;17.55;4.38;;;7.90;99.90;;;;;;5059604;28;20484;-63
2023/12/30 09:06:47;;;;;;;13.35;3.95;;;8.00;99.90;;;;;;5060225;28;20442;-62
2023/12/30 09:09:13;;;;;;;19.92;5.32;;;8.00;99.90;;;;;;5076222;28;20041;-62
2023/12/30 09:11:38;;;;;;;15.55;4.13;;;8.10;99.90;;;;;;5060161;28;20346;-63
2023/12/30 09:14:05;;;;;;;14.35;3.85;;;8.20;99.90;;;;;;5059909;28;20048;-63
2023/12/30 09:16:35;;;;;;;18.83;4.43;;;8.30;99.90;;;;;;5060085;28;20037;-63
2023/12/30 09:19:00;;;;;;;12.45;3.17;;;8.40;99.90;;;;;;5059985;28;20029;-63
2023/12/30 09:21:26;;;;;;;17.90;3.88;;;8.40;99.90;;;;;;5059961;28;20036;-62
2023/12/30 09:23:52;;;;;;;11.75;3.55;;;8.50;99.90;;;;;;5075664;28;20286;-64
2023/12/30 09:26:18;;;;;;;16.73;4.57;;;8.50;99.90;;;;;;5059924;28;20040;-63
2023/12/30 09:28:44;;;;;;;14.88;3.92;;;8.60;99.90;;;;;;5059730;28;20029;-64
2023/12/30 09:31:10;;;;;;;14.13;3.70;;;8.60;99.90;;;;;;5059670;28;20057;-61
2023/12/30 09:33:36;;;;;;;16.98;4.07;;;8.60;99.90;;;;;;5058920;28;20044;-62
2023/12/30 09:36:02;;;;;;;18.08;3.70;;;8.70;99.90;;;;;;5059949;28;20380;-62
2023/12/30 09:38:27;;;;;;;14.65;3.22;;;8.70;99.90;;;;;;5058992;28;20029;-62
2023/12/30 09:40:54;;;;;;;16.45;3.80;;;8.70;99.90;;;;;;5060130;28;20359;-62
2023/12/30 09:43:25;;;;;;;16.48;4.03;;;8.80;99.90;;;;;;5075440;28;20044;-62
2023/12/30 09:45:52;;;;;;;14.05;3.30;;;8.80;99.90;;;;;;5059644;28;20037;-63
2023/12/30 09:48:26;;;;;;;15.27;4.13;;;8.90;99.90;;;;;;5059480;28;20296;-63
2023/12/30 09:50:53;;;;;;;9.98;3.20;;;8.90;99.90;;;;;;5058670;28;20033;-62
2023/12/30 09:53:22;;;;;;;15.85;3.47;;;9.00;99.90;;;;;;5059366;28;20357;-63
2023/12/30 09:55:52;;;;;;;16.52;3.30;;;9.00;99.90;;;;;;5075292;28;20037;-63
2023/12/30 09:58:19;;;;;;;13.02;3.22;;;8.90;99.90;;;;;;5074646;28;20040;-63
2023/12/30 10:00:45;;;;;;;16.60;3.33;;;9.00;99.90;;;;;;5059257;28;20021;-64
2023/12/30 10:03:12;;;;;;;11.07;2.97;;;9.00;99.90;;;;;;5059207;28;20033;-63
2023/12/30 10:05:38;;;;;;;13.13;2.78;;;9.00;99.90;;;;;;5059179;28;20144;-65
2023/12/30 10:08:04;;;;;;;13.65;3.13;;;9.00;99.90;;;;;;5059055;28;20112;-64
2023/12/30 10:10:46;;;;;;;10.00;2.55;;;9.10;99.90;;;;;;5059399;28;20305;-63
2023/12/30 10:13:14;;;;;;;18.90;3.33;;;9.00;99.90;;;;;;5058958;28;20040;-62
2023/12/30 10:15:40;;;;;;;11.32;3.10;;;9.10;99.90;;;;;;5058918;28;20033;-63
2023/12/30 10:18:07;;;;;;;17.10;3.05;;;9.30;99.90;;;;;;5058074;28;20107;-61
2023/12/30 10:20:40;;;;;;;16.77;2.80;;;9.30;99.90;;;;;;5058795;28;20045;-62
2023/12/30 10:23:07;;;;;;;10.45;2.40;;;9.20;99.90;;;;;;5058717;28;20029;-63
2023/12/30 10:25:33;;;;;;;12.07;2.90;;;9.30;99.90;;;;;;5074542;28;20070;-63
2023/12/30 10:28:00;;;;;;;12.27;2.88;;;9.30;99.90;;;;;;5058423;28;20029;-63
2023/12/30 10:30:26;;;;;;;10.77;2.83;;;9.30;99.90;;;;;;5058396;28;20057;-62
2023/12/30 10:32:51;;;;;;;8.55;2.47;;;9.20;99.90;;;;;;5074591;28;20353;-63
2023/12/30 10:35:17;;;;;;;10.70;1.90;;;9.20;99.90;;;;;;5058358;28;20404;-65
2023/12/30 10:37:46;;;;;;;10.10;2.58;;;9.20;99.90;;;;;;5057831;28;20452;-65
2023/12/30 10:40:12;;;;;;;12.23;1.98;;;9.30;99.90;;;;;;5058428;28;20028;-64
2023/12/30 10:42:41;;;;;;;10.40;2.15;;;9.20;99.90;;;;;;5057735;28;20025;-65
2023/12/30 10:45:08;;;;;;;12.35;1.98;;;9.20;99.90;;;;;;5058187;28;20034;-65
2023/12/30 10:47:39;;;;;;;12.65;2.13;;;9.20;99.90;;;;;;5058338;28;20039;-64
2023/12/30 10:50:09;;;;;;;10.80;2.20;;;9.20;99.90;;;;;;5058340;28;20098;-65
2023/12/30 10:52:41;;;;;;;10.40;2.35;;;9.20;99.90;;;;;;5058156;28;20033;-64
2023/12/30 10:55:14;;;;;;;12.90;2.53;;;9.10;99.90;;;;;;5057290;28;20043;-65
2023/12/30 10:57:54;;;;;;;8.35;1.88;;;9.20;99.90;;;;;;5057962;28;20044;-65
2023/12/30 11:00:20;;;;;;;11.07;2.20;;;9.40;99.90;;;;;;5058071;28;20051;-65
2023/12/30 11:02:47;;;;;;;9.82;2.13;;;9.50;99.90;;;;;;5057928;28;20029;-63
2023/12/30 11:05:31;;;;;;;9.52;2.67;;;9.50;99.90;;;;;;5057983;28;20037;-65
2023/12/30 11:07:58;;;;;;;12.23;2.40;;;9.60;99.90;;;;;;5057787;28;20075;-64
2023/12/30 11:10:23;;;;;;;11.18;1.92;;;9.60;99.90;;;;;;5072688;28;20032;-65
2023/12/30 11:12:52;;;;;;;9.68;2.05;;;9.80;99.90;;;;;;5073590;28;20037;-66
2023/12/30 11:15:28;;;;;;;9.75;2.25;;;9.70;99.90;;;;;;5057707;28;20120;-65
2023/12/30 11:17:56;;;;;;;11.65;2.00;;;9.80;99.90;;;;;;5057663;28;20052;-66
2023/12/30 11:20:30;;;;;;;12.95;2.10;;;9.80;99.90;;;;;;5057579;28;20028;-64
2023/12/30 11:23:03;;;;;;;11.43;1.98;;;9.70;99.90;;;;;;5073503;28;20037;-64
2023/12/30 11:25:43;;;;;;;12.38;1.98;;;9.80;99.90;;;;;;5057714;28;20040;-65
2023/12/30 11:28:16;;;;;;;12.07;2.35;;;9.90;99.90;;;;;;5057731;28;20093;-64
2023/12/30 11:31:01;;;;;;;11.57;1.90;;;9.90;99.90;;;;;;5074400;28;20411;-65
2023/12/30 11:33:27;;;;;;;7.43;2.10;;;9.90;99.90;;;;;;5074293;28;20033;-65
2023/12/30 11:35:54;;;;;;;13.82;2.70;;;9.90;99.90;;;;;;5074240;28;20094;-64
2023/12/30 11:38:21;;;;;;;9.70;2.00;;;9.90;99.90;;;;;;5073838;28;20025;-67
2023/12/30 11:40:57;;;;;;;9.93;2.17;;;9.90;99.90;;;;;;5074333;28;20436;-64
2023/12/30 11:43:25;;;;;;;13.00;3.08;;;9.90;99.90;;;;;;5073177;28;20029;-65
2023/12/30 11:45:52;;;;;;;8.93;2.47;;;10.20;99.90;;;;;;5074007;28;20166;-64
2023/12/30 11:48:18;;;;;;;10.15;2.60;;;10.20;99.90;;;;;;5056207;28;20340;-65
2023/12/30 11:50:44;;;;;;;14.63;2.72;;;10.20;99.90;;;;;;5073577;28;20037;-64
2023/12/30 11:53:10;;;;;;;10.88;1.92;;;10.30;99.90;;;;;;5073763;28;20078;-69
2023/12/30 11:55:36;;;;;;;11.25;2.28;;;10.30;99.90;;;;;;5073754;28;20024;-65
2023/12/30 11:58:02;;;;;;;11.48;2.20;;;10.40;99.90;;;;;;5089915;28;20102;-64
2023/12/30 12:00:28;;;;;;;11.40;2.25;;;10.50;99.90;;;;;;5073695;28;20120;-68
2023/12/30 12:02:55;;;;;;;9.68;2.20;;;10.50;99.90;;;;;;5073503;28;20111;-63
2023/12/30 12:05:22;;;;;;;8.48;1.60;;;10.60;99.90;;;;;;5073456;28;20074;-65
2023/12/30 12:07:48;;;;;;;9.00;2.25;;;10.60;99.90;;;;;;5073271;28;20041;-64
2023/12/30 12:10:14;;;;;;;10.27;1.63;;;10.60;99.90;;;;;;5073305;28;20423;-65
2023/12/30 12:12:43;;;;;;;7.50;1.50;;;10.60;99.90;;;;;;5073259;28;20025;-66
2023/12/30 12:15:09;;;;;;;6.85;1.80;;;10.60;99.90;;;;;;5073299;28;20029;-65
2023/12/30 12:17:35;;;;;;;3.80;1.48;;;10.70;99.90;;;;;;5073092;28;20082;-64
2023/12/30 12:20:04;;;;;;;13.48;2.25;;;10.80;99.90;;;;;;5073160;28;20281;-64
2023/12/30 12:22:31;;;;;;;10.00;1.65;;;10.80;99.90;;;;;;5073358;28;20024;-63
2023/12/30 12:24:57;;;;;;;8.63;1.77;;;10.90;99.90;;;;;;5073028;28;20063;-63
2023/12/30 12:27:24;;;;;;;7.20;1.55;;;11.10;99.90;;;;;;5072332;28;20033;-63
2023/12/30 12:29:54;;;;;;;7.63;1.60;;;11.00;99.90;;;;;;5072027;28;20366;-63
2023/12/30 12:32:21;;;;;;;10.48;1.77;;;10.70;99.90;;;;;;5072913;28;20434;-65
2023/12/30 12:34:54;;;;;;;7.40;1.63;;;10.80;99.90;;;;;;5072143;28;20040;-64
2023/12/30 12:37:20;;;;;;;6.47;1.33;;;10.90;99.90;;;;;;5072830;28;20159;-63
2023/12/30 12:39:46;;;;;;;8.68;1.50;;;10.90;99.90;;;;;;5072760;28;20135;-63
2023/12/30 12:42:14;;;;;;;4.95;1.35;;;11.00;99.90;;;;;;5059320;28;20032;-63
2023/12/30 12:44:40;;;;;;;10.40;1.58;;;11.00;99.90;;;;;;5059316;28;20305;-64
2023/12/30 12:47:09;;;;;;;4.70;1.27;;;11.00;99.90;;;;;;5058654;28;20028;-67